Time;durP1;ratioP1;P1;durP2;ratioP2;P2;SDS_P1;SDS_P2;PMS_P1;PMS_P2;Temp;Humidity;BMP_temperature;BMP_pressure;BME280_temperature;BME280_humidity;BME280_pressure;Samples;Min_cycle;Max_cycle;Signal;HPM_P1;HPM_P2
2023/01/28 00:01:16;;;;;;;30.00;16.13;;;0.60;99.90;;;;;;4178639;28;20653;-59
2023/01/28 00:03:17;;;;;;;26.20;14.27;;;0.60;99.90;;;;;;4191809;28;20281;-66
2023/01/28 00:05:18;;;;;;;27.43;14.67;;;0.60;99.90;;;;;;4194982;28;20344;-62
2023/01/28 00:07:20;;;;;;;27.63;14.47;;;0.60;99.90;;;;;;4193765;28;20320;-60
2023/01/28 00:09:21;;;;;;;28.70;15.63;;;0.60;99.90;;;;;;4191110;28;20673;-64
2023/01/28 00:11:22;;;;;;;27.33;15.63;;;0.60;99.90;;;;;;4180982;28;20278;-59
2023/01/28 00:13:24;;;;;;;34.43;17.03;;;0.60;99.90;;;;;;4184726;28;20265;-60
2023/01/28 00:15:25;;;;;;;30.90;14.67;;;0.60;99.90;;;;;;4195779;28;20682;-61
2023/01/28 00:17:26;;;;;;;32.20;16.70;;;0.70;99.90;;;;;;4191222;28;20273;-60
2023/01/28 00:19:27;;;;;;;23.77;13.13;;;0.60;99.90;;;;;;4184546;28;20266;-61
2023/01/28 00:21:28;;;;;;;32.63;16.13;;;0.60;99.90;;;;;;4194929;28;20546;-59
2023/01/28 00:23:32;;;;;;;26.20;14.33;;;0.60;99.90;;;;;;4195454;28;20733;-59
2023/01/28 00:25:33;;;;;;;31.47;17.37;;;0.60;99.90;;;;;;4194376;28;20739;-59
2023/01/28 00:27:34;;;;;;;29.30;16.40;;;0.60;99.90;;;;;;4182876;28;20274;-60
2023/01/28 00:29:36;;;;;;;27.03;15.20;;;0.60;99.90;;;;;;4179862;28;20283;-61
2023/01/28 00:31:38;;;;;;;26.50;14.37;;;0.60;99.90;;;;;;4194580;28;20281;-60
2023/01/28 00:33:39;;;;;;;29.20;15.70;;;0.60;99.90;;;;;;4194555;28;20683;-60
2023/01/28 00:35:40;;;;;;;29.40;15.03;;;0.60;99.90;;;;;;4181410;28;20270;-59
2023/01/28 00:37:45;;;;;;;27.27;15.07;;;0.60;99.90;;;;;;4180112;28;20395;-61
2023/01/28 00:39:46;;;;;;;26.80;15.17;;;0.60;99.90;;;;;;4178002;28;20368;-64
2023/01/28 00:41:47;;;;;;;25.43;14.00;;;0.60;99.90;;;;;;4179083;28;20265;-61
2023/01/28 00:43:49;;;;;;;29.23;15.47;;;0.60;99.90;;;;;;4189139;28;20281;-62
2023/01/28 00:45:50;;;;;;;22.13;12.27;;;0.60;99.90;;;;;;4178998;28;20742;-60
2023/01/28 00:47:51;;;;;;;21.57;11.73;;;0.60;99.90;;;;;;4177698;28;20939;-59
2023/01/28 00:49:52;;;;;;;22.83;12.83;;;0.60;99.90;;;;;;4190994;28;20680;-64
2023/01/28 00:51:53;;;;;;;20.20;10.30;;;0.60;99.90;;;;;;4177819;28;20948;-61
2023/01/28 00:53:54;;;;;;;17.93;10.20;;;0.50;99.90;;;;;;4178771;28;20718;-68
2023/01/28 00:55:56;;;;;;;18.50;9.80;;;0.60;99.90;;;;;;4177815;28;20266;-66
2023/01/28 00:57:57;;;;;;;16.90;10.13;;;0.50;99.90;;;;;;4192295;28;20269;-61
2023/01/28 00:59:58;;;;;;;15.43;9.10;;;0.40;99.90;;;;;;4194544;28;20293;-62
2023/01/28 01:02:11;;;;;;;14.50;8.37;;;0.40;99.90;;;;;;4193663;28;20741;-56
2023/01/28 01:04:12;;;;;;;14.27;8.40;;;0.40;99.90;;;;;;4180233;28;20262;-60
2023/01/28 01:06:14;;;;;;;14.90;8.73;;;0.40;99.90;;;;;;4194610;28;20249;-61
2023/01/28 01:08:15;;;;;;;11.80;8.40;;;0.40;99.90;;;;;;4191229;28;20334;-61
2023/01/28 01:10:18;;;;;;;12.73;7.73;;;0.40;99.90;;;;;;4177449;28;20274;-68
2023/01/28 01:12:19;;;;;;;14.17;8.73;;;0.40;99.90;;;;;;4181818;28;20265;-59
2023/01/28 01:14:20;;;;;;;14.43;8.07;;;0.40;99.90;;;;;;4190660;28;20282;-64
2023/01/28 01:16:24;;;;;;;13.60;7.37;;;0.50;99.90;;;;;;4178582;28;20270;-58
2023/01/28 01:18:25;;;;;;;14.20;7.60;;;0.50;99.90;;;;;;4189559;28;20359;-63
2023/01/28 01:20:28;;;;;;;14.67;7.70;;;0.50;99.90;;;;;;4185391;28;20298;-59
2023/01/28 01:22:32;;;;;;;14.43;8.50;;;0.40;99.90;;;;;;4190531;28;20307;-60
2023/01/28 01:24:33;;;;;;;13.20;7.37;;;0.40;99.90;;;;;;4194901;28;20265;-60
2023/01/28 01:26:34;;;;;;;12.93;7.40;;;0.50;99.90;;;;;;4193762;28;20746;-61
2023/01/28 01:28:36;;;;;;;12.53;7.00;;;0.40;99.90;;;;;;4184417;28;20298;-61
2023/01/28 01:30:37;;;;;;;14.43;7.23;;;0.40;99.90;;;;;;4185096;28;20664;-58
2023/01/28 01:32:39;;;;;;;14.13;7.90;;;0.40;99.90;;;;;;4190600;28;20335;-60
2023/01/28 01:34:40;;;;;;;12.30;7.80;;;0.40;99.90;;;;;;4177828;28;20324;-58
2023/01/28 01:36:42;;;;;;;15.47;7.37;;;0.40;99.90;;;;;;4177419;28;21084;-67
2023/01/28 01:38:44;;;;;;;13.33;7.63;;;0.40;99.90;;;;;;4180646;28;20824;-59
2023/01/28 01:40:45;;;;;;;15.23;6.87;;;0.30;99.90;;;;;;4193395;28;20293;-57
2023/01/28 01:42:46;;;;;;;12.07;6.57;;;0.30;99.90;;;;;;4192778;28;20265;-57
2023/01/28 01:44:47;;;;;;;12.50;7.67;;;0.30;99.90;;;;;;4191968;28;20672;-60
2023/01/28 01:46:50;;;;;;;11.00;7.13;;;0.30;99.90;;;;;;4194070;28;20315;-60
2023/01/28 01:48:53;;;;;;;10.20;6.83;;;0.30;99.90;;;;;;4193178;28;20318;-60
2023/01/28 01:50:59;;;;;;;11.20;6.53;;;0.30;99.90;;;;;;4190583;28;20319;-59
2023/01/28 01:53:08;;;;;;;8.80;5.57;;;0.30;99.90;;;;;;4177011;28;20254;-57
2023/01/28 01:55:15;;;;;;;8.73;5.17;;;0.30;99.90;;;;;;4178250;28;20251;-62
2023/01/28 01:57:23;;;;;;;9.13;5.20;;;0.30;99.90;;;;;;4177242;28;20808;-59
2023/01/28 01:59:29;;;;;;;10.80;5.13;;;0.30;99.90;;;;;;4178181;28;20502;-60
2023/01/28 02:01:31;;;;;;;8.97;5.27;;;0.30;99.90;;;;;;4187804;28;20626;-60
2023/01/28 02:03:54;;;;;;;9.50;5.20;;;0.30;99.90;;;;;;4193959;28;20282;-61
2023/01/28 02:05:55;;;;;;;11.20;6.30;;;0.30;99.90;;;;;;4192999;28;20335;-61
2023/01/28 02:08:19;;;;;;;8.90;5.53;;;0.40;99.90;;;;;;4192914;28;20273;-58
2023/01/28 02:10:20;;;;;;;11.20;5.70;;;0.40;99.90;;;;;;4183717;28;20327;-57
2023/01/28 02:12:43;;;;;;;12.73;6.10;;;0.40;99.90;;;;;;4188412;28;20320;-59
2023/01/28 02:14:55;;;;;;;10.77;6.20;;;0.40;99.90;;;;;;4176786;28;20339;-63
2023/01/28 02:16:56;;;;;;;15.40;8.40;;;0.40;99.90;;;;;;4178902;28;20269;-65
2023/01/28 02:18:58;;;;;;;12.73;7.33;;;0.40;99.90;;;;;;4191537;28;20679;-63
2023/01/28 02:21:23;;;;;;;12.10;6.77;;;0.40;99.90;;;;;;4178959;28;20290;-59
2023/01/28 02:23:36;;;;;;;13.60;8.20;;;0.40;99.90;;;;;;4187793;28;20319;-61
2023/01/28 02:25:56;;;;;;;18.87;11.07;;;0.50;99.90;;;;;;4191479;28;20355;-59
2023/01/28 02:28:19;;;;;;;16.60;10.17;;;0.50;99.90;;;;;;4193331;28;20315;-60
2023/01/28 02:30:27;;;;;;;19.50;11.70;;;0.50;99.90;;;;;;4178798;28;20376;-60
2023/01/28 02:32:58;;;;;;;15.03;9.10;;;0.50;99.90;;;;;;4176718;28;20817;-58
2023/01/28 02:35:11;;;;;;;13.55;7.75;;;0.60;99.90;;;;;;4178323;28;20286;-59
2023/01/28 02:37:23;;;;;;;12.53;6.43;;;0.60;99.90;;;;;;4191883;28;20101;-61
2023/01/28 02:39:40;;;;;;;9.63;5.57;;;0.60;99.90;;;;;;4193059;28;20269;-64
2023/01/28 02:41:49;;;;;;;10.63;6.17;;;0.60;99.90;;;;;;4193162;28;20843;-60
2023/01/28 02:43:50;;;;;;;11.43;7.53;;;0.60;99.90;;;;;;4193048;28;20338;-59
2023/01/28 02:48:24;;;;;;;11.63;6.87;;;0.60;99.90;;;;;;4141105;28;20286;-61
2023/01/28 02:50:38;;;;;;;10.83;6.77;;;0.60;99.90;;;;;;4189064;28;20274;-61
2023/01/28 02:55:54;;;;;;;12.27;6.70;;;0.60;99.90;;;;;;4178021;28;20344;-59
2023/01/28 02:58:24;;;;;;;10.60;5.80;;;0.60;99.90;;;;;;4176936;28;20266;-60
2023/01/28 03:00:39;;;;;;;14.37;7.17;;;0.60;99.90;;;;;;4180494;28;20298;-59
2023/01/28 03:02:56;;;;;;;20.83;9.80;;;0.70;99.90;;;;;;4179532;28;20266;-60
2023/01/28 03:05:02;;;;;;;22.17;9.97;;;0.70;99.90;;;;;;4186222;28;20281;-58
2023/01/28 03:07:08;;;;;;;18.40;10.57;;;0.60;99.90;;;;;;4195771;28;20261;-57
2023/01/28 03:09:27;;;;;;;17.07;9.00;;;0.70;99.90;;;;;;4196675;28;20281;-61
2023/01/28 03:38:19;;;;;;;9.00;5.17;;;0.70;99.90;;;;;;4187433;28;20281;-59
2023/01/28 03:40:21;;;;;;;9.50;5.10;;;0.70;99.90;;;;;;4195364;28;20334;-61
2023/01/28 03:42:22;;;;;;;9.30;5.07;;;0.60;99.90;;;;;;4181029;28;20340;-62
2023/01/28 03:46:44;;;;;;;7.30;4.63;;;0.60;99.90;;;;;;4179762;28;20262;-63
2023/01/28 03:48:45;;;;;;;10.50;5.47;;;0.60;99.90;;;;;;4179271;28;20459;-58
2023/01/28 03:50:47;;;;;;;6.23;4.00;;;0.60;99.90;;;;;;4191233;28;20327;-63
2023/01/28 03:52:48;;;;;;;18.93;5.93;;;0.50;99.90;;;;;;4178836;28;20258;-58
2023/01/28 03:54:51;;;;;;;9.60;4.70;;;0.60;99.90;;;;;;4178531;28;20258;-58
2023/01/28 03:56:52;;;;;;;9.53;5.37;;;0.60;99.90;;;;;;4193247;28;20339;-58
2023/01/28 03:58:55;;;;;;;6.83;4.83;;;0.60;99.90;;;;;;4180715;28;20339;-60
2023/01/28 04:00:56;;;;;;;8.87;5.57;;;0.50;99.90;;;;;;4179527;28;20343;-60
2023/01/28 04:02:58;;;;;;;10.37;6.50;;;0.50;99.90;;;;;;4178503;28;20278;-60
2023/01/28 04:04:59;;;;;;;11.50;5.57;;;0.60;99.90;;;;;;4180043;28;20379;-63
2023/01/28 04:07:00;;;;;;;7.97;4.67;;;0.50;99.90;;;;;;4192514;28;20289;-65
2023/01/28 04:09:04;;;;;;;8.23;4.50;;;0.50;99.90;;;;;;4182492;28;20332;-58
2023/01/28 04:11:14;;;;;;;6.40;4.33;;;0.50;99.90;;;;;;4177708;28;20328;-58
2023/01/28 04:13:17;;;;;;;7.22;4.18;;;0.50;99.90;;;;;;4179446;28;20266;-59
2023/01/28 04:15:18;;;;;;;7.87;4.67;;;0.50;99.90;;;;;;4183497;28;20435;-60
2023/01/28 04:17:19;;;;;;;7.67;4.70;;;0.50;99.90;;;;;;4193813;28;20265;-57
2023/01/28 04:19:21;;;;;;;6.17;4.13;;;0.60;99.90;;;;;;4184331;28;20351;-60
2023/01/28 04:21:22;;;;;;;11.87;5.33;;;0.50;99.90;;;;;;4185045;28;20753;-62
2023/01/28 04:23:23;;;;;;;7.07;4.57;;;0.60;99.90;;;;;;4182726;28;20304;-63
2023/01/28 04:25:24;;;;;;;8.93;4.90;;;0.60;99.90;;;;;;4178391;28;20258;-58
2023/01/28 04:27:25;;;;;;;10.03;5.73;;;0.60;99.90;;;;;;4179824;28;20266;-63
2023/01/28 04:29:26;;;;;;;10.00;5.33;;;0.60;99.90;;;;;;4189023;28;20337;-58
2023/01/28 04:31:28;;;;;;;9.27;5.77;;;0.60;99.90;;;;;;4179107;28;20267;-63
2023/01/28 04:33:29;;;;;;;9.80;5.33;;;0.60;99.90;;;;;;4190999;28;20273;-65
2023/01/28 04:35:30;;;;;;;7.43;4.83;;;0.70;99.90;;;;;;4180190;28;20665;-58
2023/01/28 04:37:31;;;;;;;8.13;4.77;;;0.70;99.90;;;;;;4180813;28;20297;-58
2023/01/28 04:39:32;;;;;;;7.10;4.43;;;0.70;99.90;;;;;;4195532;28;20270;-57
2023/01/28 04:41:33;;;;;;;9.57;5.33;;;0.70;99.90;;;;;;4192672;28;20692;-59
2023/01/28 04:43:34;;;;;;;10.23;5.93;;;0.70;99.90;;;;;;4195283;28;20273;-60
2023/01/28 04:45:35;;;;;;;10.67;5.77;;;0.70;99.90;;;;;;4193959;28;20265;-63
2023/01/28 04:47:37;;;;;;;12.53;6.47;;;0.70;99.90;;;;;;4195445;28;20741;-64
2023/01/28 04:49:38;;;;;;;12.90;6.20;;;0.70;99.90;;;;;;4190932;28;20307;-60
2023/01/28 04:51:39;;;;;;;15.03;6.73;;;0.70;99.90;;;;;;4178598;28;20266;-62
2023/01/28 04:53:40;;;;;;;28.93;10.20;;;0.80;99.90;;;;;;4182569;28;20269;-59
2023/01/28 04:55:43;;;;;;;18.63;8.97;;;0.80;99.90;;;;;;4191500;28;20311;-61
2023/01/28 04:57:47;;;;;;;19.43;8.97;;;0.80;99.90;;;;;;4188930;28;20344;-64
2023/01/28 04:59:48;;;;;;;10.30;5.83;;;0.80;99.90;;;;;;4177691;28;20266;-60
2023/01/28 05:01:49;;;;;;;8.63;4.57;;;0.80;99.90;;;;;;4178534;28;20348;-60
2023/01/28 05:03:51;;;;;;;8.03;4.50;;;0.80;99.90;;;;;;4177032;28;20286;-56
2023/01/28 05:05:52;;;;;;;7.30;4.30;;;0.70;99.90;;;;;;4179256;28;20681;-60
2023/01/28 05:07:55;;;;;;;8.77;4.90;;;0.70;99.90;;;;;;4185878;28;20277;-61
2023/01/28 05:09:56;;;;;;;8.87;5.17;;;0.70;99.90;;;;;;4181384;28;20324;-57
2023/01/28 05:11:57;;;;;;;10.57;5.43;;;0.80;99.90;;;;;;4177427;28;20274;-59
2023/01/28 05:13:58;;;;;;;9.90;5.50;;;0.80;99.90;;;;;;4178473;28;20266;-59
2023/01/28 05:16:00;;;;;;;18.60;9.00;;;0.80;99.90;;;;;;4177324;28;20784;-61
2023/01/28 05:18:01;;;;;;;22.03;10.50;;;0.80;99.90;;;;;;4178535;28;20351;-62
2023/01/28 05:20:03;;;;;;;20.33;8.97;;;0.90;99.90;;;;;;4177088;28;20379;-59
2023/01/28 05:22:04;;;;;;;19.07;9.90;;;0.90;99.90;;;;;;4178800;28;20669;-60
2023/01/28 05:24:06;;;;;;;15.70;8.13;;;0.90;99.90;;;;;;4192480;28;20249;-58
2023/01/28 05:26:07;;;;;;;15.67;7.77;;;0.90;99.90;;;;;;4188696;28;20269;-65
2023/01/28 05:28:08;;;;;;;7.13;4.70;;;0.90;99.90;;;;;;4177987;28;20274;-58
2023/01/28 05:30:10;;;;;;;7.47;4.30;;;0.90;99.90;;;;;;4177332;28;20323;-59
2023/01/28 05:32:11;;;;;;;7.47;4.40;;;0.90;99.90;;;;;;4178168;28;20274;-60
2023/01/28 05:34:12;;;;;;;8.63;4.27;;;0.90;99.90;;;;;;4178114;28;20282;-58
2023/01/28 05:36:13;;;;;;;7.93;4.00;;;0.90;99.90;;;;;;4178524;28;20323;-59
2023/01/28 05:38:14;;;;;;;9.17;4.80;;;0.90;99.90;;;;;;4178040;28;20322;-60
2023/01/28 05:40:16;;;;;;;10.50;5.33;;;0.90;99.90;;;;;;4178423;28;20286;-59
2023/01/28 05:42:19;;;;;;;8.40;4.90;;;1.00;99.90;;;;;;4176802;28;20344;-61
2023/01/28 05:44:20;;;;;;;9.93;5.47;;;1.00;99.90;;;;;;4178227;28;20320;-60
2023/01/28 05:46:23;;;;;;;10.03;5.30;;;1.00;99.90;;;;;;4177015;28;20294;-61
2023/01/28 05:48:25;;;;;;;9.07;4.47;;;1.00;99.90;;;;;;4177965;28;20696;-61
2023/01/28 05:50:26;;;;;;;6.67;4.13;;;1.00;99.90;;;;;;4182821;28;20269;-62
2023/01/28 05:52:27;;;;;;;8.77;4.63;;;1.10;99.90;;;;;;4183940;28;20270;-59
2023/01/28 05:54:28;;;;;;;9.67;4.53;;;1.10;99.90;;;;;;4178309;28;20278;-60
2023/01/28 05:56:29;;;;;;;9.37;5.10;;;1.10;99.90;;;;;;4183705;28;20323;-63
2023/01/28 05:58:31;;;;;;;8.80;5.23;;;1.10;99.90;;;;;;4187695;28;20590;-63
2023/01/28 06:00:32;;;;;;;11.83;5.10;;;1.10;99.90;;;;;;4193758;28;20273;-59
2023/01/28 06:02:33;;;;;;;7.40;4.47;;;1.10;99.90;;;;;;4194243;28;20319;-59
2023/01/28 06:04:34;;;;;;;9.13;4.70;;;1.10;99.90;;;;;;4188336;28;20576;-61
2023/01/28 06:06:35;;;;;;;9.17;5.53;;;1.10;99.90;;;;;;4178550;28;20304;-59
2023/01/28 06:08:36;;;;;;;11.67;5.10;;;1.10;99.90;;;;;;4177635;28;20282;-62
2023/01/28 06:10:37;;;;;;;9.17;5.33;;;1.10;99.90;;;;;;4178141;28;20769;-67
2023/01/28 06:12:39;;;;;;;12.37;5.73;;;1.20;99.90;;;;;;4177780;28;20585;-59
2023/01/28 06:14:41;;;;;;;8.87;5.47;;;1.20;99.90;;;;;;4189487;28;20853;-58
2023/01/28 06:16:42;;;;;;;8.67;5.30;;;1.20;99.90;;;;;;4182646;28;20270;-63
2023/01/28 06:18:44;;;;;;;9.53;5.67;;;1.20;99.90;;;;;;4177741;28;20278;-61
2023/01/28 06:20:45;;;;;;;8.93;6.20;;;1.20;99.90;;;;;;4176671;28;20336;-59
2023/01/28 06:22:48;;;;;;;11.33;6.43;;;1.20;99.90;;;;;;4177765;28;20270;-60
2023/01/28 06:24:50;;;;;;;14.73;7.57;;;1.20;99.90;;;;;;4188084;28;20426;-58
2023/01/28 06:26:51;;;;;;;15.23;8.03;;;1.20;99.90;;;;;;4192227;28;20683;-60
2023/01/28 06:28:52;;;;;;;17.60;9.63;;;1.20;99.90;;;;;;4182284;28;20254;-60
2023/01/28 06:30:54;;;;;;;17.20;9.80;;;1.10;99.90;;;;;;4193767;28;20279;-59
2023/01/28 06:32:55;;;;;;;24.53;13.03;;;1.10;99.90;;;;;;4182808;28;20558;-60
2023/01/28 06:34:56;;;;;;;20.53;13.63;;;1.10;99.90;;;;;;4179036;28;20815;-59
2023/01/28 06:36:57;;;;;;;23.47;13.73;;;1.10;99.90;;;;;;4191219;28;20818;-59
2023/01/28 06:38:59;;;;;;;18.57;11.47;;;1.10;99.90;;;;;;4183173;28;20778;-61
2023/01/28 06:41:01;;;;;;;16.60;11.00;;;1.20;99.90;;;;;;4192938;28;20763;-60
2023/01/28 06:43:02;;;;;;;20.50;12.00;;;1.20;99.90;;;;;;4195825;28;20315;-59
2023/01/28 06:45:04;;;;;;;15.83;9.23;;;1.30;99.90;;;;;;4194995;28;20269;-60
2023/01/28 06:47:06;;;;;;;12.33;7.90;;;1.30;99.90;;;;;;4197318;28;20280;-60
2023/01/28 06:49:07;;;;;;;16.87;9.50;;;1.30;99.90;;;;;;4201043;28;20314;-64
2023/01/28 06:51:08;;;;;;;14.50;8.80;;;1.40;99.90;;;;;;4194042;28;20254;-59
2023/01/28 06:53:09;;;;;;;11.73;7.47;;;1.40;99.90;;;;;;4197045;28;20274;-60
2023/01/28 06:55:11;;;;;;;16.10;9.37;;;1.40;99.90;;;;;;4194824;28;20273;-61
2023/01/28 06:57:12;;;;;;;12.70;7.97;;;1.40;99.90;;;;;;4196128;28;20705;-61
2023/01/28 06:59:13;;;;;;;11.03;6.93;;;1.50;99.90;;;;;;4191232;28;20676;-66
2023/01/28 07:01:14;;;;;;;13.20;6.67;;;1.50;99.90;;;;;;4195398;28;20769;-62
2023/01/28 07:03:15;;;;;;;12.63;7.00;;;1.50;99.90;;;;;;4191231;28;20255;-62
2023/01/28 07:05:17;;;;;;;12.97;7.60;;;1.50;99.90;;;;;;4188685;28;20327;-60
2023/01/28 07:07:18;;;;;;;12.20;7.00;;;1.50;99.90;;;;;;4197016;28;20327;-63
2023/01/28 07:09:19;;;;;;;11.33;7.03;;;1.60;99.90;;;;;;4192892;28;20320;-63
2023/01/28 07:11:20;;;;;;;10.73;6.63;;;1.60;99.90;;;;;;4180519;28;20290;-66
2023/01/28 07:13:21;;;;;;;11.47;6.83;;;1.60;99.90;;;;;;4179095;28;20262;-62
2023/01/28 07:15:22;;;;;;;11.60;6.97;;;1.60;99.90;;;;;;4180166;28;20336;-62
2023/01/28 07:17:23;;;;;;;14.07;7.17;;;1.60;99.90;;;;;;4177701;28;20325;-63
2023/01/28 07:19:24;;;;;;;17.33;8.53;;;1.70;99.90;;;;;;4194889;28;20273;-62
2023/01/28 07:21:26;;;;;;;19.67;11.57;;;1.70;99.90;;;;;;4195355;28;20294;-62
2023/01/28 07:23:27;;;;;;;16.33;10.17;;;1.80;99.90;;;;;;4195024;28;20299;-66
2023/01/28 07:25:28;;;;;;;16.00;9.40;;;1.70;99.90;;;;;;4192365;28;20262;-64
2023/01/28 07:27:29;;;;;;;17.43;9.77;;;1.70;99.90;;;;;;4186532;28;20676;-66
2023/01/28 07:29:30;;;;;;;13.87;8.67;;;1.80;99.90;;;;;;4183316;28;20274;-64
2023/01/28 07:31:31;;;;;;;14.90;8.37;;;1.80;99.90;;;;;;4185679;28;20387;-63
2023/01/28 07:33:32;;;;;;;15.23;9.37;;;1.70;99.90;;;;;;4179327;28;20718;-62
2023/01/28 07:35:34;;;;;;;17.27;8.73;;;1.70;99.90;;;;;;4178668;28;20734;-63
2023/01/28 07:37:35;;;;;;;16.73;9.83;;;1.60;99.90;;;;;;4182118;28;20603;-62
2023/01/28 07:39:36;;;;;;;18.47;10.33;;;1.70;99.90;;;;;;4182329;28;20315;-70
2023/01/28 07:41:37;;;;;;;19.60;10.60;;;1.80;99.90;;;;;;4195941;28;20297;-63
2023/01/28 07:43:39;;;;;;;18.97;10.73;;;1.80;99.90;;;;;;4194442;28;20303;-62
2023/01/28 07:45:40;;;;;;;20.73;11.87;;;1.90;99.90;;;;;;4196464;28;20343;-64
2023/01/28 07:47:41;;;;;;;21.73;12.80;;;1.90;99.90;;;;;;4195044;28;20273;-63
2023/01/28 07:49:42;;;;;;;20.43;11.40;;;2.00;99.90;;;;;;4187693;28;20324;-62
2023/01/28 07:51:45;;;;;;;20.87;11.20;;;2.00;99.90;;;;;;4178454;28;20320;-60
2023/01/28 07:53:47;;;;;;;18.70;10.60;;;2.10;99.90;;;;;;4181570;28;20335;-65
2023/01/28 07:55:48;;;;;;;15.87;9.23;;;2.10;99.90;;;;;;4195010;28;20270;-60
2023/01/28 07:57:54;;;;;;;14.50;8.80;;;2.10;99.90;;;;;;4193228;28;20737;-63
2023/01/28 07:59:55;;;;;;;16.80;8.70;;;2.10;99.90;;;;;;4181179;28;20269;-58
2023/01/28 08:01:56;;;;;;;15.63;9.47;;;2.00;99.90;;;;;;4189690;28;20345;-69
2023/01/28 08:03:58;;;;;;;20.53;10.57;;;2.00;99.90;;;;;;4176805;28;20274;-64
2023/01/28 08:05:59;;;;;;;16.13;10.50;;;2.00;99.90;;;;;;4184106;28;20270;-64
2023/01/28 08:08:00;;;;;;;21.93;11.67;;;2.00;99.90;;;;;;4180290;28;20811;-67
2023/01/28 08:10:01;;;;;;;20.53;12.00;;;2.00;99.90;;;;;;4179222;28;20281;-65
2023/01/28 08:12:03;;;;;;;29.33;13.87;;;2.10;99.90;;;;;;4180400;28;20286;-67
2023/01/28 08:14:04;;;;;;;24.57;13.97;;;2.10;99.90;;;;;;4194600;28;20269;-63
2023/01/28 08:16:06;;;;;;;22.40;14.40;;;2.00;99.90;;;;;;4193588;28;20807;-66
2023/01/28 08:18:11;;;;;;;24.03;13.63;;;2.00;99.90;;;;;;4193998;28;20346;-64
2023/01/28 08:20:13;;;;;;;23.83;13.80;;;2.10;99.90;;;;;;4195438;28;20327;-62
2023/01/28 08:22:14;;;;;;;23.50;14.40;;;2.10;99.90;;;;;;4192793;28;20297;-64
2023/01/28 08:24:16;;;;;;;20.67;12.50;;;2.20;99.90;;;;;;4187843;28;20286;-64
2023/01/28 08:26:17;;;;;;;18.23;10.93;;;2.20;99.90;;;;;;4179060;28;20282;-72
2023/01/28 08:28:20;;;;;;;12.97;7.57;;;2.20;99.90;;;;;;4179632;28;20347;-64
2023/01/28 08:30:21;;;;;;;18.30;11.27;;;2.30;99.90;;;;;;4182119;28;20721;-65
2023/01/28 08:32:22;;;;;;;21.77;11.57;;;2.30;99.90;;;;;;4195101;28;20262;-62
2023/01/28 08:34:23;;;;;;;23.53;12.60;;;2.20;99.90;;;;;;4192646;28;20261;-64
2023/01/28 08:36:24;;;;;;;20.97;11.87;;;2.20;99.90;;;;;;4178518;28;20324;-64
2023/01/28 08:38:25;;;;;;;13.50;9.40;;;2.20;99.90;;;;;;4178027;28;20319;-66
2023/01/28 08:40:27;;;;;;;16.67;7.80;;;2.30;99.90;;;;;;4177474;28;20319;-64
2023/01/28 08:42:28;;;;;;;12.33;7.57;;;2.40;99.90;;;;;;4178802;28;20286;-63
2023/01/28 08:44:29;;;;;;;13.10;7.67;;;2.40;99.90;;;;;;4177515;28;20270;-63
2023/01/28 08:46:30;;;;;;;40.87;21.00;;;2.40;99.90;;;;;;4181372;28;20712;-66
2023/01/28 08:48:31;;;;;;;24.90;13.03;;;2.50;99.90;;;;;;4180899;28;20278;-62
2023/01/28 08:50:37;;;;;;;11.50;6.33;;;2.50;99.90;;;;;;4189867;28;20324;-65
2023/01/28 08:52:39;;;;;;;8.80;5.23;;;2.60;99.90;;;;;;4178479;28;20285;-65
2023/01/28 08:54:41;;;;;;;21.27;11.20;;;2.60;99.90;;;;;;4178013;28;20371;-68
2023/01/28 08:56:43;;;;;;;60.00;29.73;;;2.70;99.90;;;;;;4176656;28;20707;-63
2023/01/28 08:58:44;;;;;;;80.30;38.63;;;2.70;99.90;;;;;;4178352;28;20286;-62
2023/01/28 09:00:46;;;;;;;57.60;27.23;;;2.80;99.90;;;;;;4176987;28;20396;-64
2023/01/28 09:02:51;;;;;;;129.10;58.07;;;2.90;99.90;;;;;;4177779;28;20701;-68
2023/01/28 09:04:53;;;;;;;114.90;55.90;;;2.90;99.90;;;;;;4177190;28;20754;-63
2023/01/28 09:06:54;;;;;;;93.67;47.43;;;3.00;99.90;;;;;;4177909;28;20278;-67
2023/01/28 09:08:59;;;;;;;68.70;36.10;;;3.00;99.90;;;;;;4177543;28;20262;-64
2023/01/28 09:11:00;;;;;;;53.97;29.30;;;2.90;99.90;;;;;;4177528;28;20312;-72
2023/01/28 09:13:06;;;;;;;34.67;20.47;;;3.00;99.90;;;;;;4177689;28;20328;-68
2023/01/28 09:15:08;;;;;;;26.23;15.40;;;3.00;99.90;;;;;;4176908;28;20274;-62
2023/01/28 09:17:09;;;;;;;36.93;17.80;;;3.00;99.90;;;;;;4177797;28;20791;-63
2023/01/28 09:19:10;;;;;;;38.10;21.40;;;3.00;99.90;;;;;;4160124;28;20283;-63
2023/01/28 09:21:11;;;;;;;40.33;23.90;;;3.00;99.90;;;;;;4161686;28;20333;-66
2023/01/28 09:23:13;;;;;;;28.23;16.87;;;3.00;99.90;;;;;;4160321;28;20294;-62
2023/01/28 09:25:14;;;;;;;47.97;26.50;;;3.00;99.90;;;;;;4161315;28;20278;-68
2023/01/28 09:27:16;;;;;;;85.93;49.77;;;3.00;99.90;;;;;;4160612;28;20689;-64
2023/01/28 09:29:18;;;;;;;42.70;27.43;;;3.00;99.90;;;;;;4161462;28;20285;-62
2023/01/28 09:31:19;;;;;;;34.10;22.43;;;3.00;99.90;;;;;;4160553;28;20267;-62
2023/01/28 09:33:20;;;;;;;21.70;12.93;;;3.00;99.90;;;;;;4161615;28;20270;-64
2023/01/28 09:35:21;;;;;;;20.90;12.07;;;3.00;99.90;;;;;;4160006;28;20320;-64
2023/01/28 09:37:22;;;;;;;19.60;12.47;;;3.00;99.90;;;;;;4161260;28;20324;-62
2023/01/28 09:39:27;;;;;;;32.93;18.00;;;3.00;99.90;;;;;;4160390;28;20665;-62
2023/01/28 09:41:34;;;;;;;148.87;73.93;;;3.00;99.90;;;;;;4159098;28;20298;-65
2023/01/28 09:44:00;;;;;;;99.83;50.30;;;3.00;99.90;;;;;;4160827;28;20767;-68
2023/01/28 09:46:05;;;;;;;48.17;24.63;;;3.10;99.90;;;;;;4160921;28;20259;-64
2023/01/28 09:48:15;;;;;;;45.60;23.77;;;3.10;99.90;;;;;;4160531;28;20282;-63
2023/01/28 09:50:26;;;;;;;25.25;12.43;;;3.10;99.90;;;;;;4160935;28;20262;-67
2023/01/28 09:52:29;;;;;;;;;;;3.10;99.90;;;;;;4160943;28;20043;-65
2023/01/28 09:54:48;;;;;;;12.90;7.17;;;3.10;99.90;;;;;;4159598;28;19977;-66
2023/01/28 09:56:55;;;;;;;11.93;6.20;;;3.20;99.90;;;;;;4160639;28;20266;-61
2023/01/28 09:59:10;;;;;;;10.80;6.80;;;3.10;99.90;;;;;;4159254;28;20267;-63
2023/01/28 10:01:11;;;;;;;14.37;7.33;;;3.10;99.90;;;;;;4160414;28;20262;-63
2023/01/28 10:03:27;;;;;;;11.20;6.27;;;3.10;99.90;;;;;;4160719;28;20767;-67
2023/01/28 10:05:31;;;;;;;15.07;9.77;;;3.10;99.90;;;;;;4159039;28;20317;-63
2023/01/28 10:08:07;;;;;;;31.07;18.53;;;3.20;99.90;;;;;;4162913;28;20275;-65
2023/01/28 10:10:14;;;;;;;11.70;6.97;;;3.20;99.90;;;;;;4163525;28;20271;-71
2023/01/28 10:12:27;;;;;;;12.63;7.97;;;3.20;99.90;;;;;;4164660;28;20684;-61
2023/01/28 10:15:04;;;;;;;10.93;6.20;;;3.20;99.90;;;;;;4163177;28;20332;-62
2023/01/28 10:17:17;;;;;;;9.50;6.00;;;3.20;99.90;;;;;;4164260;28;20286;-67
2023/01/28 10:19:31;;;;;;;14.03;8.87;;;3.20;99.90;;;;;;4162931;28;20283;-62
2023/01/28 10:21:40;;;;;;;20.13;12.87;;;3.20;99.90;;;;;;4164432;28;20258;-61
2023/01/28 10:24:00;;;;;;;16.73;11.20;;;3.20;99.90;;;;;;4162909;28;20349;-62
2023/01/28 10:26:20;;;;;;;10.50;6.53;;;3.20;99.90;;;;;;4164114;28;20619;-62
2023/01/28 10:28:28;;;;;;;10.95;6.25;;;3.20;99.90;;;;;;4161936;28;20320;-62
2023/01/28 10:30:33;;;;;;;10.53;5.80;;;3.10;99.90;;;;;;4164326;28;20172;-62
2023/01/28 10:32:42;;;;;;;10.30;5.50;;;3.10;99.90;;;;;;4162942;28;20911;-62
2023/01/28 10:34:44;;;;;;;11.57;7.10;;;3.10;99.90;;;;;;4163987;28;20698;-62
2023/01/28 10:36:46;;;;;;;13.37;6.97;;;3.10;99.90;;;;;;4162909;28;20282;-72
2023/01/28 10:38:47;;;;;;;13.50;6.63;;;3.20;99.90;;;;;;4164122;28;20739;-70
2023/01/28 10:40:49;;;;;;;7.43;4.37;;;3.20;99.90;;;;;;4162961;28;20258;-68
2023/01/28 10:42:50;;;;;;;10.40;5.23;;;3.30;99.90;;;;;;4163901;28;20317;-62
2023/01/28 10:44:54;;;;;;;8.70;4.97;;;3.10;99.90;;;;;;4162767;28;20340;-70
2023/01/28 10:47:00;;;;;;;8.87;5.23;;;3.00;99.90;;;;;;4163966;28;20259;-63
2023/01/28 10:49:17;;;;;;;8.57;5.00;;;2.80;99.90;;;;;;4162344;28;20263;-66
2023/01/28 10:51:36;;;;;;;8.60;4.73;;;2.80;99.90;;;;;;4163819;28;20305;-65
2023/01/28 10:53:43;;;;;;;8.80;4.90;;;2.90;99.90;;;;;;4177300;28;20266;-65
2023/01/28 10:55:52;;;;;;;8.87;4.60;;;2.90;99.90;;;;;;4163588;28;20331;-62
2023/01/28 10:57:54;;;;;;;11.40;5.13;;;2.90;99.90;;;;;;4162699;28;21051;-67
2023/01/28 10:59:55;;;;;;;10.47;5.47;;;3.10;99.90;;;;;;4163522;28;20731;-62
2023/01/28 11:02:04;;;;;;;8.33;5.47;;;3.10;99.90;;;;;;4161886;28;20321;-70
2023/01/28 11:04:13;;;;;;;9.33;5.50;;;3.10;99.90;;;;;;4163717;28;20381;-73
2023/01/28 11:06:27;;;;;;;8.20;4.33;;;3.20;99.90;;;;;;4162503;28;20336;-63
2023/01/28 11:08:29;;;;;;;10.07;5.53;;;3.20;99.90;;;;;;4163778;28;20599;-73
2023/01/28 11:10:36;;;;;;;9.27;4.97;;;3.30;99.90;;;;;;4162319;28;20254;-68
2023/01/28 11:12:39;;;;;;;11.33;6.13;;;3.20;99.90;;;;;;4163238;28;20275;-63
2023/01/28 11:14:50;;;;;;;9.17;5.33;;;3.10;99.90;;;;;;4162510;28;20301;-68
2023/01/28 11:16:52;;;;;;;;;;;3.10;99.90;;;;;;4163802;28;20691;-71
2023/01/28 11:19:01;;;;;;;10.30;5.47;;;3.00;99.90;;;;;;4175703;28;19921;-63